Time;durP1;ratioP1;P1;durP2;ratioP2;P2;SDS_P1;SDS_P2;PMS_P1;PMS_P2;Temp;Humidity;BMP_temperature;BMP_pressure;BME280_temperature;BME280_humidity;BME280_pressure;Samples;Min_cycle;Max_cycle;Signal;HPM_P1;HPM_P2
2022/06/25 00:01:13;;;;;;;0.00;0.00;;;18.70;99.90;;;;;;5079239;28;20051;-80
2022/06/25 00:03:39;;;;;;;0.00;0.00;;;18.70;99.90;;;;;;5130372;27;20049;-80
2022/06/25 00:06:06;;;;;;;0.00;0.00;;;18.70;99.90;;;;;;5079047;28;20555;-80
2022/06/25 00:08:33;;;;;;;0.00;0.00;;;18.70;99.90;;;;;;5096029;28;20090;-79
2022/06/25 00:10:59;;;;;;;0.00;0.00;;;18.60;99.90;;;;;;5079098;28;20051;-79
2022/06/25 00:13:25;;;;;;;0.00;0.00;;;18.60;99.90;;;;;;5096454;28;20388;-80
2022/06/25 00:15:51;;;;;;;0.00;0.00;;;18.60;99.90;;;;;;5096010;28;20131;-80
2022/06/25 00:18:17;;;;;;;0.00;0.00;;;18.60;99.90;;;;;;5095650;28;20173;-80
2022/06/25 00:20:44;;;;;;;0.03;0.00;;;18.50;99.90;;;;;;5095997;28;20126;-80
2022/06/25 00:23:10;;;;;;;0.00;0.00;;;18.50;99.90;;;;;;5129989;27;20044;-80
2022/06/25 00:25:36;;;;;;;0.00;0.00;;;18.50;99.90;;;;;;5078586;28;20444;-80
2022/06/25 00:28:02;;;;;;;0.00;0.00;;;18.60;99.90;;;;;;5129868;27;20188;-80
2022/06/25 00:30:28;;;;;;;0.00;0.00;;;18.50;99.90;;;;;;5078757;28;20395;-80
2022/06/25 00:32:54;;;;;;;0.00;0.00;;;18.50;99.90;;;;;;5078698;28;20051;-80
2022/06/25 00:35:20;;;;;;;0.00;0.00;;;18.50;99.90;;;;;;5078703;28;20044;-80
2022/06/25 00:37:46;;;;;;;0.00;0.00;;;18.40;99.90;;;;;;5078529;28;20052;-80
2022/06/25 00:40:12;;;;;;;0.00;0.00;;;18.40;99.90;;;;;;5078848;28;20360;-80
2022/06/25 00:42:44;;;;;;;0.00;0.00;;;18.40;99.90;;;;;;5078557;28;20060;-80
2022/06/25 00:45:10;;;;;;;0.80;0.32;;;18.40;99.90;;;;;;5095368;28;20508;-80
2022/06/25 00:47:36;;;;;;;0.00;0.00;;;18.40;99.90;;;;;;5129377;27;20079;-80
2022/06/25 00:50:02;;;;;;;0.00;0.00;;;18.30;99.90;;;;;;5095155;28;20156;-80
2022/06/25 00:52:31;;;;;;;0.00;0.00;;;18.30;99.90;;;;;;5095435;28;20036;-80
2022/06/25 00:55:19;;;;;;;0.00;0.00;;;18.20;99.90;;;;;;5095216;28;20052;-80
2022/06/25 00:57:49;;;;;;;0.15;0.03;;;18.20;99.90;;;;;;5094605;28;20134;-80
2022/06/25 01:00:15;;;;;;;0.00;0.00;;;18.20;99.90;;;;;;5094719;28;20040;-80
2022/06/25 01:02:42;;;;;;;0.00;0.00;;;18.20;99.90;;;;;;5129070;27;20468;-80
2022/06/25 01:05:10;;;;;;;0.00;0.00;;;18.20;99.90;;;;;;5095217;28;20048;-80
2022/06/25 01:07:37;;;;;;;0.00;0.00;;;18.10;99.90;;;;;;5094912;28;20051;-80
2022/06/25 01:10:06;;;;;;;0.00;0.00;;;18.10;99.90;;;;;;5095194;28;20407;-80
2022/06/25 01:12:32;;;;;;;0.08;0.08;;;18.10;99.90;;;;;;5128761;27;20518;-80
2022/06/25 01:15:09;;;;;;;0.00;0.00;;;18.10;99.90;;;;;;5094460;28;20040;-80
2022/06/25 01:17:41;;;;;;;0.00;0.00;;;18.00;99.90;;;;;;5077942;28;20044;-80
2022/06/25 01:20:07;;;;;;;0.10;0.00;;;18.00;99.90;;;;;;5077921;28;20134;-80
2022/06/25 01:22:33;;;;;;;0.00;0.00;;;18.00;99.90;;;;;;5094578;28;20044;-80
2022/06/25 01:24:59;;;;;;;0.00;0.00;;;17.90;99.90;;;;;;5077465;28;20502;-80
2022/06/25 01:27:25;;;;;;;0.00;0.00;;;17.90;99.90;;;;;;5094556;28;20062;-80
2022/06/25 01:29:51;;;;;;;0.00;0.00;;;17.80;99.90;;;;;;5077657;28;20036;-80
2022/06/25 01:32:17;;;;;;;0.00;0.00;;;17.80;99.90;;;;;;5077890;28;20503;-80
2022/06/25 01:34:42;;;;;;;0.05;0.05;;;17.80;99.90;;;;;;5094542;28;20391;-80
2022/06/25 01:37:08;;;;;;;1.25;0.20;;;17.80;99.90;;;;;;5094000;28;20047;-80
2022/06/25 01:39:34;;;;;;;0.00;0.00;;;17.70;99.90;;;;;;5128127;27;20047;-80
2022/06/25 01:42:00;;;;;;;0.00;0.00;;;17.70;99.90;;;;;;5077437;28;20054;-80
2022/06/25 01:44:29;;;;;;;0.00;0.00;;;17.70;99.90;;;;;;5077062;28;20127;-80
2022/06/25 01:46:55;;;;;;;0.00;0.00;;;17.70;99.90;;;;;;5077306;28;20048;-80
2022/06/25 01:49:22;;;;;;;0.00;0.00;;;17.70;99.90;;;;;;5076795;28;20105;-80
2022/06/25 01:51:48;;;;;;;0.00;0.00;;;17.70;99.90;;;;;;5094105;28;20052;-80
2022/06/25 01:54:14;;;;;;;0.20;0.10;;;17.70;99.90;;;;;;5128160;27;20572;-80
2022/06/25 01:56:40;;;;;;;0.00;0.00;;;17.70;99.90;;;;;;5093430;28;20373;-80
2022/06/25 01:59:06;;;;;;;0.00;0.00;;;17.70;99.90;;;;;;5077208;28;20055;-80
2022/06/25 02:01:32;;;;;;;0.00;0.00;;;17.70;99.90;;;;;;5094502;28;20476;-80
2022/06/25 02:03:58;;;;;;;0.35;0.10;;;17.70;99.90;;;;;;5127912;27;20056;-80
2022/06/25 02:06:24;;;;;;;0.00;0.00;;;17.70;99.90;;;;;;5077009;28;20089;-80
2022/06/25 02:08:50;;;;;;;0.05;0.00;;;17.70;99.90;;;;;;5092650;28;20048;-80
2022/06/25 02:11:15;;;;;;;0.00;0.00;;;17.70;99.90;;;;;;5077193;28;20082;-80
2022/06/25 02:13:41;;;;;;;0.65;0.20;;;17.70;99.90;;;;;;5094066;28;20495;-79
2022/06/25 02:16:07;;;;;;;0.00;0.00;;;17.70;99.90;;;;;;5093749;28;20512;-80
2022/06/25 02:18:32;;;;;;;1.65;0.10;;;17.60;99.90;;;;;;5076133;28;20044;-80
2022/06/25 02:20:58;;;;;;;0.00;0.00;;;17.70;99.90;;;;;;5076206;28;20044;-80
2022/06/25 02:23:24;;;;;;;0.00;0.00;;;17.70;99.90;;;;;;5093515;28;20365;-80
2022/06/25 02:25:50;;;;;;;0.00;0.00;;;17.60;99.90;;;;;;5092684;28;20047;-80
2022/06/25 02:28:17;;;;;;;0.00;0.00;;;17.60;99.90;;;;;;5125791;27;20507;-80
2022/06/25 02:30:45;;;;;;;0.00;0.00;;;17.60;99.90;;;;;;5075393;28;20056;-80
2022/06/25 02:33:12;;;;;;;0.20;0.20;;;17.60;99.90;;;;;;5076124;28;20055;-80
2022/06/25 02:35:42;;;;;;;0.00;0.00;;;17.70;99.90;;;;;;5093544;28;20102;-80
2022/06/25 02:38:10;;;;;;;0.10;0.10;;;17.60;99.90;;;;;;5092958;28;20407;-80
2022/06/25 02:40:35;;;;;;;0.00;0.00;;;17.70;99.90;;;;;;5076347;28;20117;-80
2022/06/25 02:43:01;;;;;;;0.00;0.00;;;17.70;99.90;;;;;;5076410;28;20043;-80
2022/06/25 02:45:28;;;;;;;0.00;0.00;;;17.70;99.90;;;;;;5076370;28;20083;-80
2022/06/25 02:47:56;;;;;;;0.00;0.00;;;17.70;99.90;;;;;;5076473;28;20134;-80
2022/06/25 02:50:23;;;;;;;0.00;0.00;;;17.70;99.90;;;;;;5076659;28;20040;-80
2022/06/25 02:52:48;;;;;;;0.00;0.00;;;17.70;99.90;;;;;;5076411;28;20052;-80
2022/06/25 02:55:14;;;;;;;0.00;0.00;;;17.70;99.90;;;;;;5093840;28;20055;-79
2022/06/25 03:00:24;;;;;;;0.10;0.10;;;17.70;99.90;;;;;;5092930;28;20077;-79
2022/06/25 03:02:50;;;;;;;0.00;0.00;;;17.80;99.90;;;;;;5092988;28;20716;-80
2022/06/25 03:05:15;;;;;;;0.00;0.00;;;17.80;99.90;;;;;;5092831;28;20106;-79
2022/06/25 03:07:41;;;;;;;0.08;0.00;;;17.70;99.90;;;;;;5092764;28;20083;-79
2022/06/25 03:10:07;;;;;;;0.00;0.00;;;17.70;99.90;;;;;;5075864;28;20499;-80
2022/06/25 03:12:33;;;;;;;0.00;0.00;;;17.70;99.90;;;;;;5093018;28;20056;-79
2022/06/25 03:14:58;;;;;;;0.00;0.00;;;17.70;99.90;;;;;;5092714;28;20070;-79
2022/06/25 03:17:24;;;;;;;0.03;0.03;;;17.70;99.90;;;;;;5126776;28;20090;-80
2022/06/25 03:19:50;;;;;;;0.00;0.00;;;17.70;99.90;;;;;;5078029;28;20415;-80
2022/06/25 03:22:15;;;;;;;0.10;0.10;;;17.70;99.90;;;;;;5097490;28;20485;-79
2022/06/25 03:24:41;;;;;;;0.00;0.00;;;17.70;99.90;;;;;;5080197;28;20103;-79
2022/06/25 03:27:07;;;;;;;0.00;0.00;;;17.70;99.90;;;;;;5096781;28;20048;-79
2022/06/25 03:29:33;;;;;;;0.00;0.00;;;17.70;99.90;;;;;;5080040;28;20047;-80
2022/06/25 03:31:58;;;;;;;0.43;0.10;;;17.70;99.90;;;;;;5096906;28;20070;-80
2022/06/25 03:34:24;;;;;;;0.00;0.00;;;17.60;99.90;;;;;;5096631;28;20040;-80
2022/06/25 03:36:50;;;;;;;0.00;0.00;;;17.60;99.90;;;;;;5096434;28;20044;-80
2022/06/25 03:39:16;;;;;;;0.00;0.00;;;17.70;99.90;;;;;;5096261;28;20109;-80
2022/06/25 03:41:41;;;;;;;0.00;0.00;;;17.60;99.90;;;;;;5096583;28;20055;-80
2022/06/25 03:44:11;;;;;;;0.00;0.00;;;17.70;99.90;;;;;;5079676;28;20082;-79
2022/06/25 03:46:38;;;;;;;0.00;0.00;;;17.60;99.90;;;;;;5130578;27;20054;-80
2022/06/25 03:49:04;;;;;;;0.00;0.00;;;17.60;99.90;;;;;;5079580;28;20043;-79
2022/06/25 03:51:31;;;;;;;0.10;0.10;;;17.70;99.90;;;;;;5079388;28;20048;-80
2022/06/25 03:53:57;;;;;;;0.00;0.00;;;17.60;99.90;;;;;;5096907;28;20392;-79
2022/06/25 03:56:23;;;;;;;0.17;0.15;;;17.60;99.90;;;;;;5079415;28;20047;-79
2022/06/25 03:58:49;;;;;;;0.00;0.00;;;17.70;99.90;;;;;;5078943;28;20051;-79
2022/06/25 04:01:15;;;;;;;0.43;0.30;;;17.70;99.90;;;;;;5095523;28;20050;-80
2022/06/25 04:03:41;;;;;;;0.08;0.00;;;17.70;99.90;;;;;;5079177;28;20122;-79
2022/06/25 04:06:08;;;;;;;0.52;0.20;;;17.70;99.90;;;;;;5078889;28;20070;-79
2022/06/25 04:08:35;;;;;;;0.10;0.10;;;17.60;99.90;;;;;;5096066;28;20127;-79
2022/06/25 04:11:01;;;;;;;0.00;0.00;;;17.70;99.90;;;;;;5079040;28;20055;-79
2022/06/25 04:13:27;;;;;;;0.00;0.00;;;17.70;99.90;;;;;;5079122;28;20160;-79
2022/06/25 04:15:53;;;;;;;0.00;0.00;;;17.70;99.90;;;;;;5079052;28;20088;-79
2022/06/25 04:18:19;;;;;;;0.00;0.00;;;17.70;99.90;;;;;;5078468;28;20040;-79
2022/06/25 04:20:45;;;;;;;0.00;0.00;;;17.70;99.90;;;;;;5095726;28;20522;-79
2022/06/25 04:23:11;;;;;;;0.20;0.00;;;17.70;99.90;;;;;;5095820;28;20044;-79
2022/06/25 04:25:36;;;;;;;0.38;0.10;;;17.70;99.90;;;;;;5079006;28;20044;-79
2022/06/25 04:30:47;;;;;;;0.00;0.00;;;17.80;99.90;;;;;;5094459;28;20078;-79
2022/06/25 04:33:13;;;;;;;0.30;0.20;;;17.80;99.90;;;;;;5095810;28;20040;-79
2022/06/25 04:35:38;;;;;;;0.00;0.00;;;17.80;99.90;;;;;;5079231;28;20582;-79
2022/06/25 04:38:04;;;;;;;0.00;0.00;;;17.80;99.90;;;;;;5079141;28;20059;-79
2022/06/25 04:40:30;;;;;;;0.00;0.00;;;17.80;99.90;;;;;;5095070;28;20487;-79
2022/06/25 04:42:55;;;;;;;0.10;0.10;;;17.80;99.90;;;;;;5095351;28;20048;-79
2022/06/25 04:45:21;;;;;;;0.00;0.00;;;17.80;99.90;;;;;;5095298;28;20052;-79
2022/06/25 04:47:47;;;;;;;0.00;0.00;;;17.70;99.90;;;;;;5078239;28;20054;-79
2022/06/25 04:50:12;;;;;;;0.03;0.00;;;17.80;99.90;;;;;;5095431;28;20537;-79
2022/06/25 04:52:38;;;;;;;0.00;0.00;;;17.80;99.90;;;;;;5078194;28;20043;-79
2022/06/25 04:55:05;;;;;;;0.30;0.10;;;17.80;99.90;;;;;;5077915;28;20059;-78
2022/06/25 04:57:30;;;;;;;0.00;0.00;;;17.80;99.90;;;;;;5078924;28;20093;-79
2022/06/25 04:59:56;;;;;;;0.05;0.05;;;17.80;99.90;;;;;;5094975;28;20400;-79
2022/06/25 05:02:22;;;;;;;0.00;0.00;;;17.80;99.90;;;;;;5094758;28;20130;-79
2022/06/25 05:04:48;;;;;;;0.00;0.00;;;17.90;99.90;;;;;;5078046;28;20074;-79
2022/06/25 05:07:13;;;;;;;0.00;0.00;;;17.90;99.90;;;;;;5094370;28;20056;-79
2022/06/25 05:09:39;;;;;;;0.00;0.00;;;17.90;99.90;;;;;;5094995;28;20136;-79
2022/06/25 05:12:06;;;;;;;0.00;0.00;;;17.90;99.90;;;;;;5078000;28;20525;-79
2022/06/25 05:14:32;;;;;;;0.00;0.00;;;17.90;99.90;;;;;;5128664;27;20476;-80
2022/06/25 05:16:57;;;;;;;0.00;0.00;;;18.00;99.90;;;;;;5077745;28;20073;-80
2022/06/25 05:19:23;;;;;;;0.00;0.00;;;18.00;99.90;;;;;;5094646;28;20040;-80
2022/06/25 05:21:49;;;;;;;0.00;0.00;;;18.00;99.90;;;;;;5077608;28;20140;-79
2022/06/25 05:24:15;;;;;;;0.00;0.00;;;18.00;99.90;;;;;;5077364;28;20101;-79
2022/06/25 05:26:41;;;;;;;0.30;0.15;;;18.10;99.90;;;;;;5128837;27;20048;-79
2022/06/25 05:29:06;;;;;;;0.25;0.05;;;18.10;99.90;;;;;;5094720;28;20135;-79
2022/06/25 05:31:33;;;;;;;0.00;0.00;;;18.10;99.90;;;;;;5094272;28;20044;-80
2022/06/25 05:33:59;;;;;;;0.00;0.00;;;18.10;99.90;;;;;;5094577;28;20562;-79
2022/06/25 05:36:24;;;;;;;0.00;0.00;;;18.20;99.90;;;;;;5094893;28;20442;-79
2022/06/25 05:38:50;;;;;;;0.00;0.00;;;18.30;99.90;;;;;;5077485;28;20044;-79
2022/06/25 05:41:16;;;;;;;0.10;0.10;;;18.30;99.90;;;;;;5077495;28;20078;-80
2022/06/25 05:43:42;;;;;;;0.20;0.20;;;18.40;99.90;;;;;;5093928;28;20061;-80
2022/06/25 05:46:08;;;;;;;0.00;0.00;;;18.60;99.90;;;;;;5094274;28;20044;-80
2022/06/25 05:48:34;;;;;;;0.00;0.00;;;18.90;99.90;;;;;;5094204;28;20044;-79
2022/06/25 05:51:00;;;;;;;0.10;0.10;;;19.40;99.90;;;;;;5094685;28;20040;-80
2022/06/25 05:53:27;;;;;;;0.00;0.00;;;19.70;99.90;;;;;;5128282;27;20050;-79
2022/06/25 05:55:53;;;;;;;0.00;0.00;;;19.80;99.90;;;;;;5094075;28;20059;-80
2022/06/25 05:58:19;;;;;;;0.00;0.00;;;19.80;99.90;;;;;;5093754;28;20048;-80
2022/06/25 06:00:46;;;;;;;0.00;0.00;;;19.70;99.90;;;;;;5127694;27;20131;-80
2022/06/25 06:03:12;;;;;;;0.00;0.00;;;19.60;99.90;;;;;;5077164;28;20106;-80
2022/06/25 06:05:41;;;;;;;0.00;0.00;;;19.60;99.90;;;;;;5092957;28;20052;-79
2022/06/25 06:08:07;;;;;;;0.00;0.00;;;19.60;99.90;;;;;;5128050;27;20040;-79
2022/06/25 06:10:34;;;;;;;2.40;0.45;;;19.50;99.90;;;;;;5093433;28;20561;-80
2022/06/25 06:13:00;;;;;;;2.95;0.55;;;19.50;99.90;;;;;;5076283;28;20064;-80
2022/06/25 06:15:26;;;;;;;0.00;0.00;;;19.50;99.90;;;;;;5092462;28;20056;-79
2022/06/25 06:17:51;;;;;;;0.00;0.00;;;19.50;99.90;;;;;;5127618;27;20075;-80
2022/06/25 06:20:17;;;;;;;0.00;0.00;;;19.70;99.90;;;;;;5093228;28;20084;-80
2022/06/25 06:22:43;;;;;;;0.00;0.00;;;19.80;99.90;;;;;;5076681;28;20109;-80
2022/06/25 06:25:09;;;;;;;0.00;0.00;;;19.90;99.90;;;;;;5127454;27;20048;-79
2022/06/25 06:27:35;;;;;;;0.00;0.00;;;19.90;99.90;;;;;;5076437;28;20044;-79
2022/06/25 06:30:00;;;;;;;0.00;0.00;;;19.90;99.90;;;;;;5127305;27;20079;-79
2022/06/25 06:32:26;;;;;;;0.00;0.00;;;19.90;99.90;;;;;;5076268;28;20055;-79
2022/06/25 06:34:52;;;;;;;0.00;0.00;;;19.90;99.90;;;;;;5093242;28;20089;-79
2022/06/25 06:37:17;;;;;;;0.00;0.00;;;19.90;99.90;;;;;;5093203;28;20127;-78
2022/06/25 06:39:43;;;;;;;0.00;0.00;;;19.90;99.90;;;;;;5076047;28;20088;-79
2022/06/25 06:42:09;;;;;;;0.82;0.47;;;19.90;99.90;;;;;;5093164;28;20188;-79
2022/06/25 06:44:34;;;;;;;0.00;0.00;;;19.90;99.90;;;;;;5093505;28;20159;-78
2022/06/25 06:47:00;;;;;;;0.00;0.00;;;20.00;99.90;;;;;;5075982;28;20096;-79
2022/06/25 06:49:26;;;;;;;2.67;1.10;;;20.00;99.90;;;;;;5093083;28;20131;-79
2022/06/25 06:51:51;;;;;;;0.03;0.00;;;20.10;99.90;;;;;;5093232;28;20086;-79
2022/06/25 06:54:17;;;;;;;0.00;0.00;;;20.10;99.90;;;;;;5092434;28;20388;-79
2022/06/25 06:56:43;;;;;;;0.00;0.00;;;20.10;99.90;;;;;;5093012;28;20047;-79
2022/06/25 06:59:09;;;;;;;0.00;0.00;;;20.20;99.90;;;;;;5092480;28;20052;-79
2022/06/25 07:01:35;;;;;;;0.00;0.00;;;20.30;99.90;;;;;;5127635;27;20047;-79
2022/06/25 07:04:00;;;;;;;0.00;0.00;;;20.30;99.90;;;;;;5076341;28;20390;-79
2022/06/25 07:06:26;;;;;;;0.00;0.00;;;20.40;99.90;;;;;;5092979;28;20537;-79
2022/06/25 07:08:52;;;;;;;0.00;0.00;;;20.50;99.90;;;;;;5093000;28;20452;-79
2022/06/25 07:11:29;;;;;;;0.00;0.00;;;20.50;99.90;;;;;;5092858;28;20048;-79
2022/06/25 07:13:59;;;;;;;0.00;0.00;;;20.50;99.90;;;;;;5093499;28;20073;-79
2022/06/25 07:16:25;;;;;;;0.00;0.00;;;20.60;99.90;;;;;;5127709;28;20048;-79
2022/06/25 07:18:51;;;;;;;0.00;0.00;;;20.70;99.90;;;;;;5126722;28;20044;-79
2022/06/25 07:21:17;;;;;;;0.00;0.00;;;20.70;99.90;;;;;;5076805;28;20502;-79
2022/06/25 07:23:43;;;;;;;0.00;0.00;;;20.80;99.90;;;;;;5092681;28;20067;-79
2022/06/25 07:26:09;;;;;;;0.00;0.00;;;20.90;99.90;;;;;;5075943;28;20065;-80
2022/06/25 07:28:35;;;;;;;0.00;0.00;;;20.90;99.90;;;;;;5075840;28;20088;-79
2022/06/25 07:31:00;;;;;;;0.00;0.00;;;21.00;99.90;;;;;;5126975;28;20404;-79
2022/06/25 07:33:29;;;;;;;0.00;0.00;;;21.10;99.90;;;;;;5092515;28;20082;-79
2022/06/25 07:35:55;;;;;;;0.00;0.00;;;21.10;99.90;;;;;;5126670;28;20044;-79
2022/06/25 07:38:20;;;;;;;0.00;0.00;;;21.20;99.90;;;;;;5092371;28;20483;-80
2022/06/25 07:40:46;;;;;;;0.55;0.15;;;21.30;99.90;;;;;;5092894;28;20392;-80
2022/06/25 07:43:12;;;;;;;0.32;0.10;;;21.30;99.90;;;;;;5092609;28;20079;-79
2022/06/25 07:45:37;;;;;;;0.00;0.00;;;21.50;99.90;;;;;;5092647;28;20048;-80
2022/06/25 07:48:03;;;;;;;0.00;0.00;;;21.60;99.90;;;;;;5075563;28;20055;-80
2022/06/25 07:53:13;;;;;;;0.00;0.00;;;21.90;99.90;;;;;;5093157;28;20083;-80
2022/06/25 07:55:39;;;;;;;0.00;0.00;;;22.00;99.90;;;;;;5092207;28;20483;-80
2022/06/25 07:58:05;;;;;;;0.00;0.00;;;22.10;99.90;;;;;;5092410;28;20127;-80
2022/06/25 08:00:31;;;;;;;0.00;0.00;;;22.10;99.90;;;;;;5126397;28;20136;-79
2022/06/25 08:02:56;;;;;;;0.00;0.00;;;22.10;99.90;;;;;;5092420;28;20048;-79
2022/06/25 08:05:22;;;;;;;0.00;0.00;;;22.20;99.90;;;;;;5076542;28;20408;-79
2022/06/25 08:07:49;;;;;;;0.00;0.00;;;22.30;99.90;;;;;;5095633;28;20056;-80
2022/06/25 08:10:15;;;;;;;0.00;0.00;;;22.40;99.90;;;;;;5129525;27;20106;-80
2022/06/25 08:12:41;;;;;;;0.00;0.00;;;22.50;99.90;;;;;;5096131;28;20040;-80
2022/06/25 08:15:07;;;;;;;0.00;0.00;;;22.60;99.90;;;;;;5129543;27;20052;-79
2022/06/25 08:17:36;;;;;;;0.10;0.10;;;22.70;99.90;;;;;;5078964;28;20040;-79
2022/06/25 08:20:02;;;;;;;0.85;0.10;;;22.80;99.90;;;;;;5129850;27;20047;-79
2022/06/25 08:22:28;;;;;;;0.00;0.00;;;22.90;99.90;;;;;;5130849;27;20084;-79
2022/06/25 08:24:54;;;;;;;0.00;0.00;;;23.00;99.90;;;;;;5078827;28;20468;-79
2022/06/25 08:27:19;;;;;;;0.00;0.00;;;22.90;99.90;;;;;;5095174;28;20067;-79
2022/06/25 08:29:45;;;;;;;0.00;0.00;;;22.90;99.90;;;;;;5078758;28;20400;-79
2022/06/25 08:32:11;;;;;;;0.10;0.10;;;23.00;99.90;;;;;;5129154;27;20052;-79
2022/06/25 08:34:37;;;;;;;0.00;0.00;;;23.10;99.90;;;;;;5129803;27;20054;-79
2022/06/25 08:37:04;;;;;;;0.00;0.00;;;23.10;99.90;;;;;;5095851;28;20388;-79
2022/06/25 08:39:30;;;;;;;0.00;0.00;;;23.30;99.90;;;;;;5129961;27;20491;-79
2022/06/25 08:41:59;;;;;;;0.20;0.13;;;23.30;99.90;;;;;;5130161;27;20152;-79
2022/06/25 08:44:25;;;;;;;0.00;0.00;;;23.30;99.90;;;;;;5129758;27;20091;-79
2022/06/25 08:46:51;;;;;;;0.00;0.00;;;23.30;99.90;;;;;;5095524;28;20044;-79
2022/06/25 08:49:18;;;;;;;0.00;0.00;;;23.20;99.90;;;;;;5078416;28;20404;-79
2022/06/25 08:51:45;;;;;;;2.08;0.45;;;23.20;99.90;;;;;;5078041;28;20450;-79
2022/06/25 08:54:11;;;;;;;0.00;0.00;;;23.20;99.90;;;;;;5078471;28;20048;-79
2022/06/25 08:56:37;;;;;;;0.00;0.00;;;23.20;99.90;;;;;;5129384;27;20040;-79
2022/06/25 08:59:03;;;;;;;0.00;0.00;;;23.30;99.90;;;;;;5094932;28;20048;-80
2022/06/25 09:01:29;;;;;;;0.00;0.00;;;23.40;99.90;;;;;;5098377;28;20062;-79
2022/06/25 09:03:55;;;;;;;0.00;0.00;;;23.50;99.90;;;;;;5098018;28;20055;-79
2022/06/25 09:06:23;;;;;;;0.00;0.00;;;23.50;99.90;;;;;;5098112;28;20047;-79
2022/06/25 09:09:10;;;;;;;0.00;0.00;;;23.60;99.90;;;;;;5098459;28;20395;-78
2022/06/25 09:12:04;;;;;;;0.00;0.00;;;23.80;99.90;;;;;;5115162;28;20107;-79
2022/06/25 09:14:32;;;;;;;0.00;0.00;;;23.80;99.90;;;;;;5097842;28;20055;-79
2022/06/25 09:17:03;;;;;;;0.30;0.10;;;24.10;99.90;;;;;;5114356;28;20055;-79
2022/06/25 09:19:35;;;;;;;0.10;0.10;;;24.20;99.90;;;;;;5115287;28;20498;-79
2022/06/25 09:22:08;;;;;;;0.10;0.00;;;24.30;99.90;;;;;;5098346;28;20134;-79
2022/06/25 09:24:47;;;;;;;0.00;0.00;;;24.30;99.90;;;;;;5114995;28;20112;-79
2022/06/25 09:27:20;;;;;;;0.38;0.15;;;24.20;99.90;;;;;;5098283;28;20044;-79
2022/06/25 09:29:50;;;;;;;0.00;0.00;;;24.20;99.30;;;;;;5115432;28;20071;-78
2022/06/25 09:32:17;;;;;;;0.05;0.05;;;24.10;99.60;;;;;;5114830;28;20043;-78
2022/06/25 09:34:43;;;;;;;0.00;0.00;;;24.00;99.00;;;;;;5097877;28;20047;-79
2022/06/25 09:37:24;;;;;;;0.00;0.00;;;23.90;99.40;;;;;;5114715;28;20502;-79
2022/06/25 09:39:52;;;;;;;0.00;0.00;;;23.70;99.00;;;;;;5097786;28;20044;-78
2022/06/25 09:42:28;;;;;;;0.20;0.00;;;23.80;98.90;;;;;;5114714;28;20379;-79
2022/06/25 09:45:09;;;;;;;0.00;0.00;;;23.90;99.30;;;;;;5097785;28;20096;-78
2022/06/25 09:47:43;;;;;;;0.00;0.00;;;23.90;99.70;;;;;;5114661;28;20472;-78
2022/06/25 09:50:11;;;;;;;0.00;0.00;;;24.10;99.60;;;;;;5114523;28;20040;-79
2022/06/25 09:52:49;;;;;;;0.00;0.00;;;24.40;99.40;;;;;;5114462;28;20056;-78
2022/06/25 09:55:15;;;;;;;0.05;0.05;;;24.60;99.40;;;;;;5097793;28;20074;-79
2022/06/25 09:57:43;;;;;;;0.00;0.00;;;24.60;98.60;;;;;;5113360;28;20060;-79
2022/06/25 10:00:14;;;;;;;0.00;0.00;;;24.70;98.20;;;;;;5114053;28;20082;-78
2022/06/25 10:02:44;;;;;;;0.00;0.00;;;24.70;98.50;;;;;;5097623;28;20395;-78
2022/06/25 10:05:11;;;;;;;0.00;0.00;;;24.80;98.80;;;;;;5114495;28;20108;-78
2022/06/25 10:10:23;;;;;;;0.00;0.00;;;25.10;98.10;;;;;;5113977;28;20411;-78
2022/06/25 10:12:50;;;;;;;0.00;0.00;;;25.00;98.30;;;;;;5097320;28;20116;-79
2022/06/25 10:15:20;;;;;;;0.00;0.00;;;24.80;97.50;;;;;;5114265;28;20047;-79
2022/06/25 10:17:47;;;;;;;0.00;0.00;;;24.80;98.50;;;;;;5097124;28;20134;-79
2022/06/25 10:20:15;;;;;;;0.00;0.00;;;24.70;98.40;;;;;;5096751;28;20040;-79
2022/06/25 10:22:42;;;;;;;0.00;0.00;;;24.70;98.30;;;;;;5113992;28;20047;-78
2022/06/25 10:25:11;;;;;;;0.00;0.00;;;24.70;97.90;;;;;;5096934;28;20066;-79
2022/06/25 10:27:39;;;;;;;0.00;0.00;;;24.80;97.40;;;;;;5113756;28;20101;-79
2022/06/25 10:30:05;;;;;;;0.00;0.00;;;24.90;96.50;;;;;;5112666;28;20105;-79
2022/06/25 10:32:34;;;;;;;0.00;0.00;;;25.00;96.90;;;;;;5096290;28;20116;-78
2022/06/25 10:35:03;;;;;;;0.00;0.00;;;25.00;97.50;;;;;;5113777;28;20381;-78
2022/06/25 10:37:58;;;;;;;0.00;0.00;;;24.90;96.10;;;;;;5113583;28;20367;-79
2022/06/25 10:40:24;;;;;;;0.00;0.00;;;24.80;95.50;;;;;;5114306;28;20040;-78
2022/06/25 10:42:59;;;;;;;0.00;0.00;;;24.90;97.10;;;;;;5096060;28;20059;-79
2022/06/25 10:45:25;;;;;;;0.00;0.00;;;25.10;96.80;;;;;;5096160;28;20059;-78
2022/06/25 10:47:58;;;;;;;0.43;0.20;;;25.20;95.80;;;;;;5096360;28;20048;-79
2022/06/25 10:50:25;;;;;;;0.00;0.00;;;25.00;96.20;;;;;;5096844;28;20047;-79
2022/06/25 10:53:03;;;;;;;0.00;0.00;;;25.00;96.60;;;;;;5113353;28;20078;-79
2022/06/25 10:55:56;;;;;;;0.00;0.00;;;25.20;96.60;;;;;;5096456;28;20082;-78
2022/06/25 10:58:24;;;;;;;0.00;0.00;;;25.40;96.30;;;;;;5095944;28;20082;-79
2022/06/25 11:00:51;;;;;;;0.00;0.00;;;25.30;95.30;;;;;;5113477;28;20091;-79
2022/06/25 11:03:37;;;;;;;0.00;0.00;;;25.40;95.60;;;;;;5096679;28;20039;-79
2022/06/25 11:06:22;;;;;;;0.00;0.00;;;25.70;95.10;;;;;;5113026;28;20044;-79
2022/06/25 11:08:49;;;;;;;0.00;0.00;;;25.80;95.30;;;;;;5113244;28;20051;-79
2022/06/25 11:11:35;;;;;;;0.00;0.00;;;25.80;95.40;;;;;;5113204;28;20054;-79
2022/06/25 11:14:03;;;;;;;0.00;0.00;;;25.60;94.60;;;;;;5096012;28;20074;-79
2022/06/25 11:16:29;;;;;;;0.00;0.00;;;25.40;94.20;;;;;;5096106;28;20402;-79
2022/06/25 11:18:57;;;;;;;0.00;0.00;;;25.20;93.30;;;;;;5096077;28;20036;-79
2022/06/25 11:21:29;;;;;;;0.00;0.00;;;25.00;94.00;;;;;;5113026;28;20439;-79
2022/06/25 11:24:25;;;;;;;0.00;0.00;;;24.90;93.70;;;;;;5113890;28;20051;-79
2022/06/25 11:29:48;;;;;;;0.00;0.00;;;25.20;95.40;;;;;;5023234;28;20049;-79
2022/06/25 11:32:26;;;;;;;0.03;0.00;;;25.50;94.20;;;;;;5015139;28;20061;-79
2022/06/25 11:34:53;;;;;;;0.00;0.00;;;25.80;93.80;;;;;;4985601;28;20545;-80
2022/06/25 11:37:19;;;;;;;0.00;0.00;;;26.20;93.80;;;;;;4995366;28;20064;-79
2022/06/25 11:39:47;;;;;;;0.05;0.05;;;26.40;92.50;;;;;;4995713;28;20053;-79
2022/06/25 11:42:14;;;;;;;0.08;0.08;;;26.70;92.40;;;;;;4999262;28;20564;-79
2022/06/25 11:44:45;;;;;;;0.00;0.00;;;26.60;92.40;;;;;;5006111;28;20527;-79
2022/06/25 11:47:15;;;;;;;0.00;0.00;;;26.30;91.50;;;;;;5001473;28;20042;-80
2022/06/25 11:49:42;;;;;;;0.00;0.00;;;26.10;91.70;;;;;;4998823;28;20093;-79
2022/06/25 11:52:09;;;;;;;0.00;0.00;;;26.20;93.40;;;;;;4999241;28;20041;-80
2022/06/25 11:54:36;;;;;;;0.00;0.00;;;26.50;92.40;;;;;;4999210;28;20132;-79
2022/06/25 11:57:05;;;;;;;0.00;0.00;;;26.80;91.70;;;;;;4983570;28;20058;-79
2022/06/25 11:59:37;;;;;;;0.00;0.00;;;26.90;92.20;;;;;;5018639;28;20052;-80
2022/06/25 12:02:04;;;;;;;0.00;0.00;;;26.70;91.70;;;;;;5020280;28;20103;-79
2022/06/25 12:04:32;;;;;;;0.00;0.00;;;26.50;90.70;;;;;;5096268;28;20050;-80
2022/06/25 12:06:58;;;;;;;0.00;0.00;;;26.40;90.30;;;;;;5096141;28;20101;-80
2022/06/25 12:09:25;;;;;;;0.10;0.00;;;26.10;89.70;;;;;;5095920;28;20063;-79
2022/06/25 12:11:52;;;;;;;0.00;0.00;;;25.90;90.00;;;;;;5078782;28;20108;-79
2022/06/25 12:14:31;;;;;;;0.00;0.00;;;25.70;90.30;;;;;;5096184;28;20550;-79
2022/06/25 12:16:58;;;;;;;0.00;0.00;;;25.70;91.30;;;;;;5096324;28;20087;-79
2022/06/25 12:19:42;;;;;;;0.00;0.00;;;25.70;92.90;;;;;;5078737;28;20082;-79
2022/06/25 12:22:21;;;;;;;0.00;0.00;;;26.00;92.90;;;;;;5096797;28;20040;-79
2022/06/25 12:24:48;;;;;;;0.00;0.00;;;26.40;91.70;;;;;;5096046;28;20140;-79
2022/06/25 12:27:13;;;;;;;0.00;0.00;;;26.40;91.30;;;;;;5079006;28;20534;-80
2022/06/25 12:29:39;;;;;;;0.00;0.00;;;26.30;90.80;;;;;;5095877;28;20131;-80
2022/06/25 12:32:05;;;;;;;0.00;0.00;;;26.10;90.90;;;;;;5078752;28;20047;-79
2022/06/25 12:34:31;;;;;;;0.00;0.00;;;26.00;91.10;;;;;;5113461;28;20090;-79
2022/06/25 12:36:57;;;;;;;0.00;0.00;;;25.70;91.80;;;;;;5095695;28;20084;-79
2022/06/25 12:39:43;;;;;;;0.00;0.00;;;25.60;92.40;;;;;;5095625;28;20044;-79
2022/06/25 12:42:13;;;;;;;0.00;0.00;;;25.40;92.80;;;;;;5078929;28;20062;-79
2022/06/25 12:44:42;;;;;;;0.00;0.00;;;25.30;93.00;;;;;;5095190;28;20052;-79
2022/06/25 12:47:12;;;;;;;0.00;0.00;;;25.20;92.90;;;;;;5095543;28;20052;-79
2022/06/25 12:49:43;;;;;;;0.00;0.00;;;25.00;92.90;;;;;;5095490;28;20504;-79
2022/06/25 12:52:08;;;;;;;0.00;0.00;;;24.90;93.30;;;;;;5094742;28;20135;-79
2022/06/25 12:55:00;;;;;;;0.00;0.00;;;24.80;94.50;;;;;;5078067;28;20444;-79
2022/06/25 12:57:28;;;;;;;0.00;0.00;;;24.80;94.40;;;;;;5074320;28;20044;-79
2022/06/25 12:59:56;;;;;;;0.00;0.00;;;24.80;94.70;;;;;;5112299;28;20146;-79
2022/06/25 13:02:23;;;;;;;0.00;0.00;;;24.70;94.70;;;;;;5094965;28;20052;-79
2022/06/25 13:04:50;;;;;;;0.00;0.00;;;24.70;95.10;;;;;;5095094;28;20055;-79